createdAt,value
2019-05-02T00:03:14.943Z,55.51
2019-05-02T00:05:47.609Z,55.45
2019-05-02T00:08:33.212Z,55.47
2019-05-02T00:10:59.697Z,55.41
2019-05-02T00:13:27.829Z,55.38
2019-05-02T00:15:56.977Z,55.37
2019-05-02T00:18:32.068Z,55.34
2019-05-02T00:21:01.438Z,55.29
2019-05-02T00:23:27.949Z,55.24
2019-05-02T00:25:57.103Z,55.26
2019-05-02T00:28:26.491Z,55.23
2019-05-02T00:30:54.643Z,55.24
2019-05-02T00:33:22.727Z,55.17
2019-05-02T00:35:50.801Z,55.13
2019-05-02T00:38:18.866Z,55.14
2019-05-02T00:40:47.982Z,55.13
2019-05-02T00:43:16.033Z,55.10
2019-05-02T00:45:44.061Z,55.12
2019-05-02T00:48:23.153Z,54.98
2019-05-02T00:50:52.493Z,54.96
2019-05-02T00:53:21.980Z,54.93
2019-05-02T00:55:50.101Z,54.89
2019-05-02T00:58:18.261Z,54.89
2019-05-02T01:01:05.786Z,54.89
2019-05-02T01:03:37.079Z,54.89
2019-05-02T01:06:13.683Z,54.88
2019-05-02T01:08:36.963Z,54.87
2019-05-02T01:11:05.100Z,54.82
2019-05-02T01:13:33.332Z,54.81
2019-05-02T01:16:02.603Z,54.81
2019-05-02T01:18:31.073Z,54.79
2019-05-02T01:21:02.753Z,54.82
2019-05-02T01:23:29.872Z,54.79
2019-05-02T01:26:02.742Z,54.73
2019-05-02T01:29:01.849Z,54.76
2019-05-02T01:31:36.818Z,54.78
2019-05-02T01:34:22.939Z,54.74
2019-05-02T01:36:55.923Z,54.76
2019-05-02T01:39:24.226Z,54.76
2019-05-02T01:41:53.357Z,54.74
2019-05-02T01:44:21.475Z,54.73
2019-05-02T01:46:53.967Z,54.68
2019-05-02T01:49:21.750Z,54.71
2019-05-02T01:51:49.576Z,54.76
2019-05-02T01:54:19.299Z,54.73
2019-05-02T01:56:47.599Z,54.67
2019-05-02T01:59:15.740Z,54.70
2019-05-02T02:01:43.822Z,54.70
2019-05-02T02:04:16.148Z,54.70
2019-05-02T02:06:45.149Z,54.63
2019-05-02T02:09:13.353Z,54.65
2019-05-02T02:11:41.444Z,54.65
2019-05-02T02:14:18.426Z,54.60
2019-05-02T02:16:44.421Z,54.60
2019-05-02T02:19:21.116Z,54.60
2019-05-02T02:22:02.757Z,54.50
2019-05-02T02:25:05.163Z,54.54
2019-05-02T02:27:59.753Z,54.52
2019-05-02T02:30:28.998Z,54.48
2019-05-02T02:39:54.211Z,54.42
2019-05-02T02:43:12.735Z,54.41
2019-05-02T02:48:44.388Z,54.33
2019-05-02T02:51:23.661Z,54.35
2019-05-02T02:53:47.638Z,54.36
2019-05-02T02:56:16.058Z,54.32
2019-05-02T02:58:47.981Z,54.28
2019-05-02T03:01:27.338Z,54.25
2019-05-02T03:03:48.254Z,54.24
2019-05-02T03:06:22.316Z,54.19
2019-05-02T03:08:51.929Z,54.18
2019-05-02T03:11:25.071Z,54.23
2019-05-02T03:14:10.681Z,54.21
2019-05-02T03:16:46.045Z,54.12
2019-05-02T03:19:14.484Z,54.15
2019-05-02T03:21:41.536Z,54.13
2019-05-02T03:24:09.577Z,54.09
2019-05-02T03:26:37.737Z,54.04
2019-05-02T03:29:05.791Z,54.07
2019-05-02T03:31:33.936Z,54.09
2019-05-02T03:34:02.197Z,54.03
2019-05-02T03:36:36.546Z,54.03
2019-05-02T03:39:00.749Z,54.05
2019-05-02T03:41:30.345Z,54.11
2019-05-02T03:44:10.454Z,54.02
2019-05-02T03:46:31.678Z,53.98
2019-05-02T03:49:07.522Z,54.05
2019-05-02T03:51:30.984Z,53.99
2019-05-02T03:54:07.078Z,53.99
2019-05-02T03:56:29.818Z,53.93
2019-05-02T03:58:58.600Z,53.93
2019-05-02T04:01:26.774Z,53.98
2019-05-02T04:03:56.501Z,54.02
2019-05-02T04:06:32.394Z,53.96
2019-05-02T04:09:39.126Z,53.96
2019-05-02T04:36:31.723Z,54.07
2019-05-02T04:45:44.486Z,54.12
2019-05-02T04:48:03.782Z,54.18
2019-05-02T04:50:51.664Z,54.16
2019-05-02T04:53:26.030Z,54.15
2019-05-02T04:56:01.550Z,54.28
2019-05-02T04:58:33.395Z,54.21
2019-05-02T05:01:02.070Z,54.20
2019-05-02T05:03:31.186Z,54.22
2019-05-02T05:06:11.898Z,54.27
2019-05-02T05:08:55.329Z,54.31
2019-05-02T05:11:24.923Z,54.28
2019-05-02T05:13:58.998Z,54.30
2019-05-02T05:16:28.481Z,54.29
2019-05-02T05:18:57.894Z,54.38
2019-05-02T05:21:28.622Z,54.35
2019-05-02T05:24:15.485Z,54.35
2019-05-02T05:26:45.331Z,54.41
2019-05-02T05:29:13.988Z,54.44
2019-05-02T05:31:43.208Z,54.43
2019-05-02T05:34:12.807Z,54.48
2019-05-02T05:37:03.501Z,54.50
2019-05-02T05:39:52.510Z,55.05
2019-05-02T05:42:27.017Z,55.50
2019-05-02T05:44:50.650Z,56.21
2019-05-02T05:47:21.309Z,56.07
2019-05-02T05:49:52.409Z,56.10
2019-05-02T05:52:18.246Z,56.04
2019-05-02T05:54:47.405Z,55.88
2019-05-02T05:57:19.214Z,56.07
2019-05-02T05:59:45.436Z,55.68
2019-05-02T06:02:14.745Z,55.63
2019-05-02T06:04:42.822Z,55.73
2019-05-02T06:07:10.896Z,55.60
2019-05-02T06:09:39.086Z,55.63
2019-05-02T06:12:07.245Z,55.63
2019-05-02T06:14:35.268Z,55.91
2019-05-02T06:17:03.349Z,56.47
2019-05-02T06:19:31.524Z,56.53
2019-05-02T06:21:59.624Z,56.65
2019-05-02T06:24:27.652Z,56.87
2019-05-02T06:26:55.691Z,57.26
2019-05-02T06:29:23.737Z,57.69
2019-05-02T06:31:51.896Z,57.83
2019-05-02T06:34:19.977Z,57.82
2019-05-02T06:36:48.058Z,57.76
2019-05-02T06:39:16.196Z,57.72
2019-05-02T06:41:44.851Z,57.71
2019-05-02T06:44:12.991Z,57.75
2019-05-02T06:46:43.431Z,57.79
2019-05-02T06:49:11.563Z,57.75
2019-05-02T06:51:39.785Z,57.82
2019-05-02T06:54:07.892Z,57.85
2019-05-02T06:56:35.976Z,57.98
2019-05-02T06:59:04.884Z,57.97
2019-05-02T07:01:33.097Z,57.90
2019-05-02T07:04:04.039Z,57.85
2019-05-02T07:06:39.981Z,57.85
2019-05-02T07:09:00.898Z,57.87
2019-05-02T07:11:33.193Z,57.95
2019-05-02T07:14:11.815Z,57.96
2019-05-02T07:16:49.729Z,58.28
2019-05-02T07:19:27.415Z,58.58
2019-05-02T07:21:58.427Z,58.66
2019-05-02T07:24:30.588Z,58.28
2019-05-02T07:27:02.196Z,58.27
2019-05-02T07:29:36.422Z,58.42
2019-05-02T07:32:06.445Z,58.60
2019-05-02T07:34:37.868Z,58.66
2019-05-02T07:37:08.342Z,58.76
2019-05-02T07:39:41.050Z,58.79
2019-05-02T07:42:08.021Z,58.75
2019-05-02T07:44:38.418Z,58.79
2019-05-02T07:47:08.766Z,58.76
2019-05-02T07:49:37.051Z,58.80
2019-05-02T07:52:05.238Z,58.81
2019-05-02T07:54:33.384Z,58.89
2019-05-02T07:57:02.451Z,58.92
2019-05-02T07:59:31.910Z,59.01
2019-05-02T08:02:04.370Z,58.98
2019-05-02T08:04:34.217Z,59.07
2019-05-02T08:07:03.131Z,59.00
2019-05-02T08:09:31.170Z,59.08
2019-05-02T08:11:59.321Z,59.04
2019-05-02T08:14:29.245Z,59.24
2019-05-02T08:17:05.458Z,59.33
2019-05-02T08:19:27.166Z,59.27
2019-05-02T08:21:55.252Z,59.32
2019-05-02T08:24:23.500Z,59.62
2019-05-02T08:27:04.957Z,59.62
2019-05-02T08:29:33.706Z,59.68
2019-05-02T08:32:01.832Z,59.80
2019-05-02T08:34:31.514Z,59.78
2019-05-02T08:37:03.138Z,59.90
2019-05-02T08:39:33.442Z,59.94
2019-05-02T08:41:59.431Z,60.06
2019-05-02T08:44:27.559Z,60.18
2019-05-02T08:46:55.669Z,60.23
2019-05-02T08:49:23.780Z,60.30
2019-05-02T08:51:51.861Z,60.36
2019-05-02T08:54:20.004Z,60.49
2019-05-02T08:56:48.036Z,60.61
2019-05-02T08:59:19.763Z,60.62
2019-05-02T09:01:49.332Z,60.81
2019-05-02T09:04:15.750Z,60.71
2019-05-02T09:06:46.023Z,60.78
2019-05-02T09:09:13.620Z,60.87
2019-05-02T09:11:43.880Z,60.84
2019-05-02T09:14:12.567Z,60.84
2019-05-02T09:16:42.694Z,61.00
2019-05-02T09:19:13.518Z,60.97
2019-05-02T09:21:40.532Z,61.10
2019-05-02T09:24:12.758Z,60.99
2019-05-02T09:26:38.855Z,61.07
2019-05-02T09:29:07.091Z,61.02
2019-05-02T09:31:36.794Z,61.13
2019-05-02T09:34:04.831Z,61.16
2019-05-02T09:36:32.920Z,61.20
2019-05-02T09:39:02.652Z,61.30
2019-05-02T09:41:32.523Z,61.33
2019-05-02T09:44:02.735Z,61.22
2019-05-02T09:46:32.328Z,61.19
2019-05-02T09:49:04.275Z,61.13
2019-05-02T09:51:29.807Z,61.09
2019-05-02T09:54:04.703Z,61.06
2019-05-02T09:56:27.515Z,60.97
2019-05-02T09:59:06.363Z,60.91
2019-05-02T10:01:33.045Z,60.91
2019-05-02T10:04:02.362Z,60.89
2019-05-02T10:06:32.125Z,60.88
2019-05-02T10:09:02.626Z,60.85
2019-05-02T10:11:30.026Z,60.84
2019-05-02T10:13:58.073Z,60.88
2019-05-02T10:16:27.423Z,60.82
2019-05-02T10:18:55.649Z,60.77
2019-05-02T10:21:23.677Z,60.68
2019-05-02T10:23:58.985Z,60.65
2019-05-02T10:26:24.586Z,60.68
2019-05-02T10:28:53.383Z,60.81
2019-05-02T10:31:21.863Z,60.70
2019-05-02T10:33:50.066Z,60.59
2019-05-02T10:36:19.782Z,60.52
2019-05-02T10:38:49.005Z,60.51
2019-05-02T10:41:17.618Z,60.57
2019-05-02T10:43:46.937Z,60.50
2019-05-02T10:46:37.871Z,60.42
2019-05-02T10:49:15.421Z,60.51
2019-05-02T10:51:49.417Z,60.51
2019-05-02T10:54:13.226Z,60.48
2019-05-02T10:56:42.335Z,60.60
2019-05-02T10:59:11.781Z,60.55
2019-05-02T11:02:02.503Z,60.43
2019-05-02T11:04:32.424Z,60.49
2019-05-02T11:07:02.510Z,60.59
2019-05-02T11:09:31.886Z,60.47
2019-05-02T11:12:02.565Z,60.56
2019-05-02T11:14:42.165Z,60.56
2019-05-02T11:17:19.358Z,60.55
2019-05-02T11:20:12.434Z,60.51
2019-05-02T11:22:42.644Z,60.52
2019-05-02T11:25:12.073Z,60.62
2019-05-02T11:27:41.822Z,60.61
2019-05-02T11:30:12.017Z,60.62
2019-05-02T11:32:41.636Z,60.77
2019-05-02T11:35:09.480Z,60.74
2019-05-02T11:37:37.504Z,60.72
2019-05-02T11:40:06.940Z,60.76
2019-05-02T11:42:35.310Z,60.90
2019-05-02T11:45:03.316Z,60.88
2019-05-02T11:47:32.931Z,60.81
2019-05-02T11:50:02.409Z,60.80
2019-05-02T11:52:33.013Z,60.62
2019-05-02T11:55:02.032Z,60.94
2019-05-02T11:57:32.619Z,60.97
2019-05-02T12:00:05.203Z,60.95
2019-05-02T12:02:58.341Z,60.88
2019-05-02T12:05:35.567Z,60.83
2019-05-02T12:08:07.589Z,60.83
2019-05-02T12:10:34.265Z,60.81
2019-05-02T12:13:02.092Z,60.75
2019-05-02T12:15:30.018Z,60.75
2019-05-02T12:17:58.077Z,60.73
2019-05-02T12:20:28.548Z,60.71
2019-05-02T12:22:55.820Z,60.84
2019-05-02T12:25:23.881Z,60.70
2019-05-02T12:27:52.677Z,60.59
2019-05-02T12:30:22.805Z,60.62
2019-05-02T12:32:52.990Z,60.60
2019-05-02T12:35:22.418Z,60.55
2019-05-02T12:37:53.692Z,60.49
2019-05-02T12:40:21.697Z,60.54
2019-05-02T12:42:49.778Z,60.47
2019-05-02T12:45:17.913Z,60.44
2019-05-02T12:47:45.893Z,60.33
2019-05-02T12:50:13.973Z,60.36
2019-05-02T12:52:42.934Z,60.28
2019-05-02T12:55:12.741Z,60.28
2019-05-02T12:57:42.892Z,60.23
2019-05-02T13:00:12.735Z,60.29
2019-05-02T13:02:56.101Z,60.06
2019-05-02T13:05:24.155Z,60.06
2019-05-02T13:07:55.358Z,60.04
2019-05-02T13:10:33.882Z,60.02
2019-05-02T13:13:02.803Z,60.04
2019-05-02T13:15:32.859Z,59.99
2019-05-02T13:18:02.876Z,59.96
2019-05-02T13:20:34.728Z,59.96
2019-05-02T13:23:19.840Z,59.90
2019-05-02T13:25:47.848Z,59.88
2019-05-02T13:28:17.127Z,59.90
2019-05-02T13:31:07.309Z,59.82
2019-05-02T13:33:42.784Z,59.79
2019-05-02T13:36:12.523Z,59.84
2019-05-02T13:38:42.332Z,59.69
2019-05-02T13:41:11.880Z,59.72
2019-05-02T13:43:46.186Z,59.58
2019-05-02T13:46:18.948Z,59.57
2019-05-02T13:48:47.003Z,59.61
2019-05-02T13:51:15.529Z,59.56
2019-05-02T13:53:57.502Z,59.54
2019-05-02T13:56:47.575Z,59.55
2019-05-02T13:59:16.266Z,59.46
2019-05-02T14:01:48.125Z,59.35
2019-05-02T14:04:22.953Z,59.33
2019-05-02T14:09:58.283Z,59.28
2019-05-02T14:12:55.690Z,59.27
2019-05-02T14:15:26.064Z,59.17
2019-05-02T14:17:54.106Z,59.14
2019-05-02T14:20:22.642Z,59.09
2019-05-02T14:22:52.504Z,59.05
2019-05-02T14:25:22.375Z,59.07
2019-05-02T14:27:54.164Z,59.07
2019-05-02T14:30:35.656Z,59.04
2019-05-02T14:32:52.337Z,59.00
2019-05-02T14:35:38.613Z,58.89
2019-05-02T14:38:16.515Z,58.84
2019-05-02T14:41:12.548Z,58.79
2019-05-02T14:43:53.267Z,58.71
2019-05-02T14:46:22.128Z,58.79
2019-05-02T14:48:52.286Z,58.60
2019-05-02T14:51:25.508Z,58.66
2019-05-02T14:53:49.929Z,58.53
2019-05-02T14:56:47.590Z,58.40
2019-05-02T14:59:15.422Z,58.30
2019-05-02T15:01:46.926Z,58.21
2019-05-02T15:04:14.538Z,58.21
2019-05-02T15:06:47.141Z,58.20
2019-05-02T15:09:16.619Z,58.08
2019-05-02T15:12:03.133Z,58.06
2019-05-02T15:14:30.195Z,57.94
2019-05-02T15:16:58.598Z,57.98
2019-05-02T15:19:26.850Z,57.98
2019-05-02T15:21:56.152Z,57.88
2019-05-02T15:24:27.635Z,58.08
2019-05-02T15:26:54.059Z,58.34
2019-05-02T15:29:27.070Z,58.05
2019-05-02T15:32:05.267Z,58.08
2019-05-02T15:34:49.251Z,58.25
2019-05-02T15:37:24.118Z,58.30
2019-05-02T15:42:17.780Z,58.14
2019-05-02T15:44:46.765Z,58.04
2019-05-02T15:47:14.806Z,58.11
2019-05-02T15:49:50.288Z,57.93
2019-05-02T15:52:24.095Z,58.32
2019-05-02T15:54:59.764Z,58.40
2019-05-02T15:57:24.959Z,58.37
2019-05-02T15:59:52.870Z,58.46
2019-05-02T16:02:26.347Z,58.38
2019-05-02T16:04:52.342Z,58.29
2019-05-02T16:07:22.363Z,58.46
2019-05-02T16:09:51.515Z,58.79
2019-05-02T16:12:19.867Z,59.24
2019-05-02T16:14:47.990Z,59.04
2019-05-02T16:17:17.722Z,58.82
2019-05-02T16:19:52.502Z,58.51
2019-05-02T16:22:22.688Z,58.21
2019-05-02T16:24:51.428Z,57.95
2019-05-02T16:27:25.850Z,57.72
2019-05-02T16:29:51.934Z,57.59
2019-05-02T16:32:35.757Z,57.30
2019-05-02T16:35:12.378Z,57.24
2019-05-02T16:37:36.638Z,57.03
2019-05-02T16:40:04.822Z,57.03
2019-05-02T16:42:32.938Z,56.85
2019-05-02T16:45:02.584Z,56.76
2019-05-02T16:47:32.625Z,56.73
2019-05-02T16:50:02.409Z,56.54
2019-05-02T16:52:30.437Z,56.54
2019-05-02T16:54:59.063Z,56.62
2019-05-02T16:57:27.090Z,56.60
2019-05-02T17:00:01.156Z,56.53
2019-05-02T17:02:24.859Z,56.24
2019-05-02T17:04:54.659Z,56.06
2019-05-02T17:07:29.312Z,56.10
2019-05-02T17:10:08.470Z,55.85
2019-05-02T17:12:37.055Z,55.88
2019-05-02T17:15:34.978Z,55.81
2019-05-02T17:18:05.080Z,55.78
2019-05-02T17:20:31.820Z,55.67
2019-05-02T17:23:04.580Z,55.69
2019-05-02T17:25:29.409Z,55.86
2019-05-02T17:28:02.376Z,55.79
2019-05-02T17:30:33.676Z,55.82
2019-05-02T17:32:56.937Z,55.53
2019-05-02T17:35:25.107Z,55.74
2019-05-02T17:37:53.105Z,55.84
2019-05-02T17:40:22.478Z,55.91
2019-05-02T17:42:52.524Z,55.62
2019-05-02T17:45:20.664Z,55.53
2019-05-02T17:47:48.685Z,55.50
2019-05-02T17:50:32.811Z,55.44
2019-05-02T17:53:02.992Z,55.27
2019-05-02T17:55:32.857Z,55.44
2019-05-02T17:58:04.506Z,55.56
2019-05-02T18:00:33.387Z,55.86
2019-05-02T18:03:02.516Z,55.73
2019-05-02T18:05:32.069Z,55.75
2019-05-02T18:08:00.407Z,55.73
2019-05-02T18:10:28.488Z,55.63
2019-05-02T18:12:59.777Z,55.69
2019-05-02T18:15:29.882Z,55.69
2019-05-02T18:17:59.684Z,55.56
2019-05-02T18:20:26.010Z,55.62
2019-05-02T18:22:54.211Z,55.72
2019-05-02T18:25:25.229Z,55.68
2019-05-02T18:27:51.993Z,55.76
2019-05-02T18:30:22.844Z,55.63
2019-05-02T18:32:52.710Z,55.82
2019-05-02T18:35:22.028Z,55.89
2019-05-02T18:37:51.731Z,55.87
2019-05-02T18:40:20.266Z,55.86
2019-05-02T18:42:51.791Z,55.86
2019-05-02T18:45:19.479Z,55.89
2019-05-02T18:47:47.546Z,55.93
2019-05-02T18:50:15.571Z,56.00
2019-05-02T18:52:48.153Z,56.15
2019-05-02T18:55:17.160Z,56.18
2019-05-02T18:57:44.630Z,56.31
2019-05-02T19:00:12.790Z,56.44
2019-05-02T19:02:42.463Z,56.49
2019-05-02T19:05:13.521Z,56.50
2019-05-02T19:07:40.329Z,56.55
2019-05-02T19:10:08.360Z,56.80
2019-05-02T19:12:36.345Z,57.80
2019-05-02T19:15:06.997Z,58.31
2019-05-02T19:17:38.529Z,58.42
2019-05-02T19:20:06.215Z,58.18
2019-05-02T19:22:33.688Z,58.40
2019-05-02T19:25:03.750Z,58.37
2019-05-02T19:27:57.679Z,58.32
2019-05-02T19:30:27.682Z,58.24
2019-05-02T19:32:57.763Z,58.23
2019-05-02T19:35:25.428Z,58.23
2019-05-02T19:37:55.095Z,58.24
2019-05-02T19:40:26.869Z,58.30
2019-05-02T19:42:57.425Z,58.46
2019-05-02T19:45:22.821Z,58.41
2019-05-02T19:47:54.320Z,58.27
2019-05-02T19:50:21.947Z,58.32
2019-05-02T19:53:00.865Z,58.24
2019-05-02T19:55:24.133Z,58.05
2019-05-02T19:57:49.895Z,58.19
2019-05-02T20:00:18.282Z,58.28
2019-05-02T20:02:46.294Z,58.17
2019-05-02T20:05:16.492Z,58.07
2019-05-02T20:07:44.973Z,58.02
2019-05-02T20:10:17.933Z,58.15
2019-05-02T20:12:48.116Z,57.99
2019-05-02T20:15:17.072Z,58.22
2019-05-02T20:17:43.803Z,58.00
2019-05-02T20:20:14.724Z,58.02
2019-05-02T20:22:44.546Z,58.07
2019-05-02T20:25:12.646Z,57.95
2019-05-02T20:27:42.171Z,58.12
2019-05-02T20:30:12.019Z,57.94
2019-05-02T20:32:40.076Z,58.04
2019-05-02T20:35:08.121Z,58.09
2019-05-02T20:37:36.182Z,58.11
2019-05-02T20:40:04.285Z,58.11
2019-05-02T20:42:32.361Z,57.82
2019-05-02T20:45:02.332Z,57.89
2019-05-02T20:47:30.240Z,57.92
2019-05-02T20:49:58.309Z,58.05
2019-05-02T20:52:26.338Z,58.13
2019-05-02T20:54:54.377Z,58.00
2019-05-02T20:57:22.455Z,57.92
2019-05-02T20:59:52.427Z,57.92
2019-05-02T21:02:20.316Z,57.95
2019-05-02T21:04:48.399Z,57.88
2019-05-02T21:07:23.700Z,57.81
2019-05-02T21:10:02.067Z,57.76
2019-05-02T21:12:30.169Z,57.92
2019-05-02T21:14:58.207Z,57.92
2019-05-02T21:17:26.558Z,57.83
2019-05-02T21:19:54.593Z,57.77
2019-05-02T21:22:22.741Z,57.93
2019-05-02T21:24:52.678Z,57.96
2019-05-02T21:27:21.781Z,58.18
2019-05-02T21:32:26.256Z,58.30
2019-05-02T21:34:57.421Z,58.46
2019-05-02T21:37:25.491Z,58.63
2019-05-02T21:39:55.938Z,58.85
2019-05-02T21:42:31.886Z,58.68
2019-05-02T21:45:26.895Z,58.65
2019-05-02T21:48:07.546Z,59.18
2019-05-02T22:03:18.715Z,58.63
2019-05-02T22:05:46.853Z,58.46
2019-05-02T22:08:14.988Z,58.40
2019-05-02T22:10:49.134Z,58.33
2019-05-02T22:13:18.177Z,58.12
2019-05-02T22:15:46.232Z,57.87
2019-05-02T22:18:14.385Z,57.81
2019-05-02T22:20:56.253Z,57.73
2019-05-02T22:23:31.865Z,57.59
2019-05-02T22:26:12.364Z,57.58
2019-05-02T22:32:17.576Z,57.38
2019-05-02T22:38:04.304Z,57.34
2019-05-02T22:40:47.780Z,57.22
2019-05-02T22:43:45.456Z,57.33
2019-05-02T22:46:39.321Z,57.27
2019-05-02T22:49:09.329Z,57.02
2019-05-02T22:51:48.500Z,57.11
2019-05-02T22:54:24.033Z,57.00
2019-05-02T22:56:46.852Z,57.11
2019-05-02T22:59:15.014Z,57.10
2019-05-02T23:01:43.424Z,57.01
2019-05-02T23:04:14.320Z,57.04
2019-05-02T23:06:45.159Z,57.02
2019-05-02T23:09:13.368Z,56.92
2019-05-02T23:11:42.588Z,56.88
2019-05-02T23:14:11.118Z,56.68
2019-05-02T23:16:39.527Z,56.78
2019-05-02T23:19:16.769Z,56.84
2019-05-02T23:21:48.707Z,56.79
2019-05-02T23:24:39.427Z,56.73
2019-05-02T23:29:10.458Z,56.73
2019-05-02T23:30:15.961Z,56.66
2019-05-02T23:32:47.999Z,56.54
2019-05-02T23:35:24.608Z,56.54
2019-05-02T23:37:59.905Z,56.56
2019-05-02T23:43:26.015Z,56.50
2019-05-02T23:46:11.636Z,56.51
2019-05-02T23:48:53.366Z,56.40
2019-05-02T23:51:32.173Z,56.60
2019-05-02T23:54:07.465Z,56.60
2019-05-02T23:56:38.899Z,56.55
2019-05-02T23:59:15.541Z,56.65
